createdAt,value
2018-08-04T00:01:51.594Z,6.70
2018-08-04T00:03:54.123Z,7.17
2018-08-04T00:05:56.789Z,6.20
2018-08-04T00:07:59.355Z,5.20
2018-08-04T00:10:01.843Z,4.60
2018-08-04T00:12:04.213Z,4.60
2018-08-04T00:14:06.638Z,4.80
2018-08-04T00:16:09.012Z,4.60
2018-08-04T00:18:11.405Z,4.27
2018-08-04T00:20:14.030Z,4.23
2018-08-04T00:22:16.414Z,3.43
2018-08-04T00:24:40.514Z,3.53
2018-08-04T00:26:43.016Z,3.83
2018-08-04T00:28:45.416Z,4.30
2018-08-04T00:30:48.547Z,3.80
2018-08-04T00:32:50.921Z,3.20
2018-08-04T00:34:53.473Z,3.60
2018-08-04T00:36:55.931Z,3.00
2018-08-04T00:38:58.386Z,3.20
2018-08-04T00:41:00.783Z,3.50
2018-08-04T00:43:03.173Z,3.13
2018-08-04T00:45:05.602Z,3.73
2018-08-04T00:47:07.968Z,3.33
2018-08-04T00:49:10.439Z,3.20
2018-08-04T00:51:12.736Z,3.57
2018-08-04T00:53:15.106Z,3.00
2018-08-04T00:55:17.447Z,3.43
2018-08-04T00:57:20.432Z,3.03
2018-08-04T00:59:44.857Z,2.70
2018-08-04T01:01:48.768Z,3.13
2018-08-04T01:09:07.300Z,2.73
2018-08-04T01:11:09.350Z,2.90
2018-08-04T01:13:11.442Z,3.27
2018-08-04T01:15:13.498Z,3.03
2018-08-04T01:17:15.529Z,3.20
2018-08-04T01:19:17.592Z,3.17
2018-08-04T01:21:19.697Z,2.83
2018-08-04T01:23:21.729Z,2.50
2018-08-04T01:25:23.801Z,2.60
2018-08-04T01:27:25.849Z,2.53
2018-08-04T01:29:27.916Z,2.50
2018-08-04T01:31:29.948Z,2.57
2018-08-04T01:33:31.983Z,2.47
2018-08-04T01:35:34.059Z,2.40
2018-08-04T01:37:36.102Z,2.40
2018-08-04T01:39:38.114Z,3.00
2018-08-04T01:41:40.172Z,2.70
2018-08-04T01:43:42.196Z,3.13
2018-08-04T01:45:44.304Z,3.50
2018-08-04T01:47:46.325Z,3.37
2018-08-04T01:49:48.349Z,2.67
2018-08-04T01:51:50.397Z,2.83
2018-08-04T01:53:52.438Z,2.87
2018-08-04T01:55:54.492Z,2.63
2018-08-04T01:57:56.557Z,2.90
2018-08-04T01:59:58.651Z,3.40
2018-08-04T02:02:00.797Z,2.67
2018-08-04T02:04:02.848Z,3.10
2018-08-04T02:06:04.961Z,3.00
2018-08-04T02:08:06.993Z,2.83
2018-08-04T02:10:09.040Z,2.37
2018-08-04T02:12:11.093Z,3.00
2018-08-04T02:14:13.219Z,2.77
2018-08-04T02:16:15.264Z,3.00
2018-08-04T02:18:17.305Z,3.10
2018-08-04T02:20:19.353Z,3.10
2018-08-04T02:22:21.389Z,2.73
2018-08-04T02:24:23.430Z,3.00
2018-08-04T02:26:25.592Z,3.10
2018-08-04T02:28:27.632Z,2.83
2018-08-04T02:30:29.685Z,2.90
2018-08-04T02:32:31.715Z,3.77
2018-08-04T02:34:33.777Z,2.93
2018-08-04T02:36:35.801Z,3.43
2018-08-04T02:38:37.826Z,3.20
2018-08-04T02:40:39.885Z,3.20
2018-08-04T02:42:41.948Z,3.00
2018-08-04T02:44:43.997Z,3.77
2018-08-04T02:46:46.021Z,3.00
2018-08-04T02:48:48.036Z,3.10
2018-08-04T02:50:50.066Z,3.40
2018-08-04T02:52:52.077Z,3.27
2018-08-04T02:54:54.445Z,3.20
2018-08-04T02:56:56.496Z,3.40
2018-08-04T02:58:58.556Z,3.30
2018-08-04T03:01:00.595Z,3.13
2018-08-04T03:03:02.642Z,3.83
2018-08-04T03:05:05.433Z,3.40
2018-08-04T03:07:07.479Z,3.47
2018-08-04T03:09:10.961Z,3.57
2018-08-04T03:11:13.009Z,3.60
2018-08-04T03:13:15.257Z,3.43
2018-08-04T03:15:17.273Z,3.20
2018-08-04T03:17:19.341Z,3.57
2018-08-04T03:19:21.370Z,3.33
2018-08-04T03:21:23.407Z,3.20
2018-08-04T03:23:25.461Z,3.43
2018-08-04T03:25:27.501Z,3.13
2018-08-04T03:27:29.530Z,3.43
2018-08-04T03:29:31.557Z,4.00
2018-08-04T03:31:33.582Z,3.53
2018-08-04T03:33:35.641Z,4.37
2018-08-04T03:35:37.653Z,3.43
2018-08-04T03:37:39.673Z,3.73
2018-08-04T03:39:41.737Z,3.90
2018-08-04T03:41:43.777Z,3.80
2018-08-04T03:43:45.881Z,4.40
2018-08-04T03:45:47.961Z,3.77
2018-08-04T03:47:50.000Z,3.80
2018-08-04T03:49:52.113Z,4.03
2018-08-04T03:51:54.185Z,4.03
2018-08-04T03:53:56.245Z,3.70
2018-08-04T03:55:58.373Z,3.90
2018-08-04T03:58:00.425Z,3.87
2018-08-04T04:00:03.453Z,4.00
2018-08-04T04:02:05.480Z,3.80
2018-08-04T04:04:07.537Z,4.40
2018-08-04T04:06:09.583Z,4.33
2018-08-04T04:08:11.636Z,4.53
2018-08-04T04:10:13.713Z,4.47
2018-08-04T04:12:15.752Z,4.67
2018-08-04T04:14:17.794Z,4.00
2018-08-04T04:16:19.817Z,4.40
2018-08-04T04:18:21.884Z,4.33
2018-08-04T04:20:23.945Z,4.07
2018-08-04T04:22:25.964Z,4.33
2018-08-04T04:24:27.996Z,4.03
2018-08-04T04:26:30.171Z,4.40
2018-08-04T04:28:32.196Z,4.20
2018-08-04T04:30:34.240Z,4.73
2018-08-04T04:32:36.262Z,4.60
2018-08-04T04:34:38.296Z,3.80
2018-08-04T04:36:40.348Z,4.47
2018-08-04T04:38:42.409Z,4.80
2018-08-04T04:40:44.456Z,5.17
2018-08-04T04:42:46.473Z,4.57
2018-08-04T04:44:48.561Z,4.60
2018-08-04T04:46:50.618Z,3.93
2018-08-04T04:48:52.647Z,4.20
2018-08-04T04:50:54.779Z,4.40
2018-08-04T04:52:56.809Z,4.47
2018-08-04T04:54:58.849Z,5.07
2018-08-04T04:57:00.929Z,3.87
2018-08-04T04:59:03.109Z,4.80
2018-08-04T05:01:05.200Z,4.77
2018-08-04T05:03:07.245Z,4.93
2018-08-04T05:05:09.350Z,5.17
2018-08-04T05:07:11.370Z,4.93
2018-08-04T05:09:13.392Z,4.73
2018-08-04T05:11:15.408Z,4.97
2018-08-04T05:13:17.471Z,4.70
2018-08-04T05:15:19.513Z,5.00
2018-08-04T05:17:21.541Z,4.20
2018-08-04T05:19:23.564Z,4.57
2018-08-04T05:21:25.632Z,4.77
2018-08-04T05:23:27.657Z,4.97
2018-08-04T05:25:29.734Z,4.70
2018-08-04T05:27:31.776Z,4.60
2018-08-04T05:29:33.821Z,5.20
2018-08-04T05:31:35.872Z,4.70
2018-08-04T05:33:37.917Z,4.90
2018-08-04T05:35:39.957Z,5.10
2018-08-04T05:37:41.997Z,5.10
2018-08-04T05:39:44.021Z,4.17
2018-08-04T05:41:46.079Z,5.40
2018-08-04T05:43:48.130Z,4.70
2018-08-04T05:45:50.178Z,4.60
2018-08-04T05:47:52.241Z,4.47
2018-08-04T05:49:54.307Z,4.70
2018-08-04T05:51:56.291Z,4.13
2018-08-04T05:53:58.349Z,4.80
2018-08-04T05:56:00.416Z,4.77
2018-08-04T05:58:02.502Z,4.30
2018-08-04T06:00:06.264Z,4.60
2018-08-04T06:02:08.290Z,5.10
2018-08-04T06:04:10.325Z,4.50
2018-08-04T06:06:12.347Z,4.40
2018-08-04T06:08:14.376Z,4.63
2018-08-04T06:10:16.495Z,4.47
2018-08-04T06:12:18.478Z,4.93
2018-08-04T06:14:20.525Z,4.90
2018-08-04T06:16:22.561Z,4.83
2018-08-04T06:18:24.772Z,5.27
2018-08-04T06:20:26.786Z,4.37
2018-08-04T06:22:28.801Z,5.40
2018-08-04T06:24:30.838Z,5.20
2018-08-04T06:26:32.866Z,4.80
2018-08-04T06:28:34.938Z,4.83
2018-08-04T06:30:37.061Z,4.83
2018-08-04T06:32:39.330Z,6.60
2018-08-04T06:34:41.500Z,5.03
2018-08-04T06:36:43.517Z,5.30
2018-08-04T06:38:45.553Z,4.90
2018-08-04T06:40:47.581Z,5.50
2018-08-04T06:42:49.626Z,5.87
2018-08-04T06:44:51.691Z,5.20
2018-08-04T06:46:53.807Z,4.97
2018-08-04T06:48:55.905Z,5.07
2018-08-04T06:50:58.026Z,5.50
2018-08-04T06:53:00.292Z,5.00
2018-08-04T06:55:02.682Z,5.20
2018-08-04T06:57:04.900Z,5.50
2018-08-04T06:59:07.014Z,5.57
2018-08-04T07:01:09.181Z,5.70
2018-08-04T07:03:11.201Z,5.27
2018-08-04T07:05:13.249Z,5.37
2018-08-04T07:07:15.292Z,5.40
2018-08-04T07:09:17.324Z,6.07
2018-08-04T07:11:19.356Z,4.33
2018-08-04T07:13:21.617Z,4.73
2018-08-04T07:15:23.801Z,4.90
2018-08-04T07:17:25.955Z,4.57
2018-08-04T07:19:28.034Z,4.93
2018-08-04T07:21:30.176Z,4.60
2018-08-04T07:23:32.256Z,4.57
2018-08-04T07:25:34.289Z,3.97
2018-08-04T07:27:36.360Z,5.23
2018-08-04T07:29:38.424Z,4.97
2018-08-04T07:31:40.514Z,4.70
2018-08-04T07:33:42.597Z,5.37
2018-08-04T07:35:44.661Z,4.77
2018-08-04T07:37:46.697Z,4.57
2018-08-04T07:39:48.765Z,7.20
2018-08-04T07:41:50.885Z,5.43
2018-08-04T07:43:52.996Z,6.30
2018-08-04T07:45:55.041Z,4.63
2018-08-04T07:47:57.077Z,5.70
2018-08-04T07:49:59.208Z,5.10
2018-08-04T07:52:01.238Z,5.23
2018-08-04T07:54:03.303Z,5.27
2018-08-04T07:56:05.367Z,5.00
2018-08-04T07:58:07.448Z,5.30
2018-08-04T08:00:09.828Z,5.40
2018-08-04T08:02:11.889Z,5.10
2018-08-04T08:04:13.946Z,5.17
2018-08-04T08:06:16.001Z,4.90
2018-08-04T08:08:18.106Z,4.60
2018-08-04T08:10:20.310Z,5.40
2018-08-04T08:12:22.612Z,5.60
2018-08-04T08:14:24.712Z,4.83
2018-08-04T08:16:26.808Z,4.93
2018-08-04T08:18:28.940Z,5.53
2018-08-04T08:20:31.709Z,5.10
2018-08-04T08:22:40.875Z,5.00
2018-08-04T08:24:43.162Z,5.60
2018-08-04T08:26:45.180Z,5.90
2018-08-04T08:28:47.226Z,6.13
2018-08-04T08:30:49.372Z,5.50
2018-08-04T08:32:51.472Z,6.27
2018-08-04T08:34:53.617Z,4.73
2018-08-04T08:36:55.676Z,4.53
2018-08-04T08:38:57.780Z,4.07
2018-08-04T08:41:00.288Z,4.43
2018-08-04T08:43:02.397Z,4.70
2018-08-04T08:45:06.219Z,3.50
2018-08-04T08:47:08.290Z,3.40
2018-08-04T08:49:10.344Z,3.83
2018-08-04T08:51:12.461Z,4.63
2018-08-04T08:53:14.601Z,4.00
2018-08-04T08:55:16.588Z,3.30
2018-08-04T08:57:18.628Z,3.90
2018-08-04T08:59:20.724Z,4.03
2018-08-04T09:01:22.835Z,4.17
2018-08-04T09:03:24.870Z,4.10
2018-08-04T09:05:26.968Z,5.00
2018-08-04T09:07:29.018Z,4.30
2018-08-04T09:09:31.081Z,4.13
2018-08-04T09:11:33.149Z,5.70
2018-08-04T09:13:35.202Z,4.00
2018-08-04T09:15:37.314Z,3.67
2018-08-04T09:17:39.365Z,3.83
2018-08-04T09:19:41.425Z,3.87
2018-08-04T09:21:43.468Z,3.97
2018-08-04T09:23:45.465Z,3.47
2018-08-04T09:25:47.536Z,3.60
2018-08-04T09:27:49.596Z,4.00
2018-08-04T09:29:51.617Z,3.37
2018-08-04T09:31:53.607Z,3.83
2018-08-04T09:33:55.598Z,3.93
2018-08-04T09:35:57.645Z,3.30
2018-08-04T09:37:59.643Z,3.50
2018-08-04T09:40:01.741Z,3.10
2018-08-04T09:42:03.736Z,3.23
2018-08-04T09:44:05.811Z,3.63
2018-08-04T09:46:07.836Z,3.87
2018-08-04T09:48:09.848Z,3.57
2018-08-04T09:50:12.488Z,3.70
2018-08-04T09:52:14.525Z,3.60
2018-08-04T09:54:16.659Z,3.67
2018-08-04T09:56:18.784Z,3.70
2018-08-04T09:58:20.849Z,3.90
2018-08-04T10:00:28.709Z,3.80
2018-08-04T10:02:30.955Z,3.23
2018-08-04T10:04:33.118Z,3.90
2018-08-04T10:06:35.426Z,3.60
2018-08-04T10:08:37.589Z,3.60
2018-08-04T10:10:39.792Z,3.60
2018-08-04T10:12:41.910Z,3.40
2018-08-04T10:14:44.006Z,3.50
2018-08-04T10:16:46.099Z,4.10
2018-08-04T10:18:48.269Z,3.40
2018-08-04T10:20:50.511Z,3.30
2018-08-04T10:22:52.633Z,3.67
2018-08-04T10:24:54.844Z,4.00
2018-08-04T10:26:57.066Z,4.10
2018-08-04T10:28:59.196Z,4.03
2018-08-04T10:31:01.346Z,3.40
2018-08-04T10:33:03.534Z,3.57
2018-08-04T10:35:06.190Z,3.70
2018-08-04T10:37:08.419Z,3.90
2018-08-04T10:39:10.762Z,4.00
2018-08-04T10:41:12.872Z,3.30
2018-08-04T10:43:14.994Z,3.90
2018-08-04T10:45:17.124Z,4.20
2018-08-04T10:47:19.577Z,3.77
2018-08-04T10:49:21.723Z,3.50
2018-08-04T10:51:23.901Z,3.57
2018-08-04T10:53:26.339Z,3.37
2018-08-04T10:55:28.776Z,3.40
2018-08-04T10:57:30.932Z,3.10
2018-08-04T10:59:33.196Z,3.50
2018-08-04T11:01:35.661Z,3.40
2018-08-04T11:03:37.826Z,4.00
2018-08-04T11:05:40.237Z,4.00
2018-08-04T11:07:42.705Z,3.30
2018-08-04T11:09:44.829Z,3.30
2018-08-04T11:11:47.209Z,2.70
2018-08-04T11:13:49.401Z,3.07
2018-08-04T11:15:51.664Z,3.30
2018-08-04T11:17:53.844Z,2.83
2018-08-04T11:19:56.515Z,3.17
2018-08-04T11:21:58.641Z,3.47
2018-08-04T11:24:00.776Z,2.73
2018-08-04T11:26:02.890Z,3.07
2018-08-04T11:28:05.757Z,3.00
2018-08-04T11:30:08.398Z,2.87
2018-08-04T11:32:10.553Z,2.90
2018-08-04T11:34:12.693Z,2.83
2018-08-04T11:36:14.798Z,2.90
2018-08-04T11:38:16.893Z,2.90
2018-08-04T11:40:19.033Z,2.70
2018-08-04T11:42:21.208Z,3.07
2018-08-04T11:44:23.353Z,2.87
2018-08-04T11:46:25.460Z,3.40
2018-08-04T11:48:27.634Z,2.90
2018-08-04T11:50:29.876Z,2.80
2018-08-04T11:52:32.117Z,3.00
2018-08-04T11:54:34.319Z,2.90
2018-08-04T11:56:36.552Z,3.10
2018-08-04T11:58:38.762Z,3.20
2018-08-04T12:00:41.157Z,2.60
2018-08-04T12:02:43.404Z,2.93
2018-08-04T12:04:45.613Z,3.40
2018-08-04T12:06:47.777Z,3.40
2018-08-04T12:08:50.018Z,2.93
2018-08-04T12:10:52.261Z,2.80
2018-08-04T12:12:54.392Z,3.30
2018-08-04T12:14:56.533Z,2.77
2018-08-04T12:16:58.639Z,2.90
2018-08-04T12:19:00.809Z,2.70
2018-08-04T12:21:03.198Z,3.07
2018-08-04T12:23:05.428Z,2.90
2018-08-04T12:25:07.525Z,3.10
2018-08-04T12:27:09.675Z,3.57
2018-08-04T12:29:11.886Z,2.87
2018-08-04T12:31:14.065Z,3.27
2018-08-04T12:33:16.193Z,3.23
2018-08-04T12:35:18.333Z,3.17
2018-08-04T12:37:20.448Z,3.27
2018-08-04T12:39:22.717Z,3.00
2018-08-04T12:41:24.915Z,3.30
2018-08-04T12:43:27.211Z,2.73
2018-08-04T12:45:29.350Z,3.30
2018-08-04T12:47:31.526Z,2.50
2018-08-04T12:49:33.734Z,3.10
2018-08-04T12:51:35.914Z,3.03
2018-08-04T12:53:38.054Z,2.80
2018-08-04T12:55:40.184Z,3.10
2018-08-04T12:57:42.393Z,2.60
2018-08-04T12:59:44.534Z,2.27
2018-08-04T13:01:46.727Z,3.27
2018-08-04T13:03:48.919Z,2.77
2018-08-04T13:05:51.368Z,2.60
2018-08-04T13:07:53.511Z,2.60
2018-08-04T13:09:55.654Z,2.30
2018-08-04T13:11:57.858Z,3.13
2018-08-04T13:13:59.976Z,2.80
2018-08-04T13:16:02.176Z,2.43
2018-08-04T13:18:04.367Z,2.50
2018-08-04T13:20:06.509Z,2.87
2018-08-04T13:22:08.634Z,3.13
2018-08-04T13:24:10.794Z,3.00
2018-08-04T13:26:13.008Z,2.40
2018-08-04T13:28:15.169Z,2.37
2018-08-04T13:30:17.302Z,2.20
2018-08-04T13:32:19.416Z,2.27
2018-08-04T13:34:21.674Z,2.63
2018-08-04T13:36:24.107Z,2.57
2018-08-04T13:38:26.280Z,3.50
2018-08-04T13:40:28.459Z,2.73
2018-08-04T13:42:30.593Z,2.60
2018-08-04T13:44:32.749Z,2.50
2018-08-04T13:46:34.824Z,2.70
2018-08-04T13:48:37.069Z,2.60
2018-08-04T13:50:39.295Z,2.23
2018-08-04T13:52:41.529Z,2.10
2018-08-04T13:54:43.683Z,2.07
2018-08-04T13:56:45.834Z,2.30
2018-08-04T13:58:47.952Z,2.60
2018-08-04T14:00:50.100Z,2.30
2018-08-04T14:02:52.271Z,2.93
2018-08-04T14:07:19.928Z,2.30
2018-08-04T14:09:22.106Z,2.73
2018-08-04T14:11:24.282Z,2.60
2018-08-04T14:13:26.383Z,2.60
2018-08-04T14:15:28.617Z,2.47
2018-08-04T14:17:30.850Z,2.77
2018-08-04T14:19:32.933Z,2.70
2018-08-04T14:21:35.050Z,2.67
2018-08-04T14:23:37.242Z,2.10
2018-08-04T14:25:39.359Z,3.20
2018-08-04T14:27:41.483Z,2.50
2018-08-04T14:29:43.650Z,2.53
2018-08-04T14:31:45.802Z,2.33
2018-08-04T14:33:48.079Z,2.47
2018-08-04T14:35:50.209Z,2.83
2018-08-04T14:37:52.438Z,2.80
2018-08-04T14:39:54.592Z,3.00
2018-08-04T14:41:56.777Z,2.97
2018-08-04T14:43:59.724Z,2.50
2018-08-04T14:46:02.244Z,3.27
2018-08-04T14:48:04.567Z,3.10
2018-08-04T14:50:07.466Z,2.53
2018-08-04T14:52:10.291Z,2.50
2018-08-04T14:54:12.800Z,2.43
2018-08-04T14:56:16.634Z,2.50
2018-08-04T14:58:18.893Z,2.70
2018-08-04T15:00:21.616Z,2.43
2018-08-04T15:02:23.834Z,2.17
2018-08-04T15:04:26.055Z,2.30
2018-08-04T15:06:28.169Z,2.40
2018-08-04T15:08:30.304Z,1.80
2018-08-04T15:10:32.475Z,2.40
2018-08-04T15:12:34.717Z,2.73
2018-08-04T15:14:36.942Z,2.53
2018-08-04T15:16:39.371Z,2.33
2018-08-04T15:18:41.622Z,2.20
2018-08-04T15:20:44.194Z,2.10
2018-08-04T15:22:47.360Z,2.67
2018-08-04T15:24:49.676Z,2.33
2018-08-04T15:26:52.043Z,2.40
2018-08-04T15:28:54.497Z,2.30
2018-08-04T15:30:56.758Z,2.37
2018-08-04T15:32:59.703Z,2.10
2018-08-04T15:35:02.034Z,2.40
2018-08-04T15:37:04.329Z,2.70
2018-08-04T15:39:08.296Z,2.67
2018-08-04T15:41:10.671Z,2.60
2018-08-04T15:43:13.058Z,2.30
2018-08-04T15:45:15.626Z,2.37
2018-08-04T15:47:18.362Z,1.97
2018-08-04T15:49:21.057Z,2.10
2018-08-04T15:51:23.269Z,2.30
2018-08-04T15:53:25.461Z,2.20
2018-08-04T15:55:27.917Z,2.47
2018-08-04T15:57:30.307Z,2.17
2018-08-04T15:59:32.566Z,2.30
2018-08-04T16:01:35.076Z,2.23
2018-08-04T16:03:41.057Z,2.07
2018-08-04T16:05:43.301Z,2.13
2018-08-04T16:07:46.001Z,2.27
2018-08-04T16:09:48.326Z,2.67
2018-08-04T16:11:50.550Z,2.00
2018-08-04T16:13:52.674Z,2.17
2018-08-04T16:15:54.864Z,2.60
2018-08-04T16:17:57.023Z,2.50
2018-08-04T16:19:59.329Z,3.17
2018-08-04T16:22:01.658Z,2.57
2018-08-04T16:24:03.761Z,2.10
2018-08-04T16:26:06.014Z,2.17
2018-08-04T16:28:08.192Z,2.10
2018-08-04T16:30:12.005Z,2.33
2018-08-04T16:32:14.468Z,2.30
2018-08-04T16:34:16.908Z,2.50
2018-08-04T16:36:19.467Z,2.23
2018-08-04T16:38:21.787Z,2.50
2018-08-04T16:40:24.120Z,2.10
2018-08-04T16:42:26.353Z,2.30
2018-08-04T16:44:28.484Z,2.33
2018-08-04T16:46:30.627Z,2.80
2018-08-04T16:48:33.137Z,2.50
2018-08-04T16:50:35.395Z,2.53
2018-08-04T16:52:37.641Z,2.23
2018-08-04T16:54:39.817Z,2.27
2018-08-04T16:56:42.107Z,2.53
2018-08-04T16:58:44.730Z,2.47
2018-08-04T17:00:46.828Z,2.57
2018-08-04T17:02:48.937Z,2.60
2018-08-04T17:04:51.305Z,2.50
2018-08-04T17:06:54.120Z,2.70
2018-08-04T17:08:57.687Z,2.60
2018-08-04T17:11:00.263Z,2.70
2018-08-04T17:13:03.239Z,2.80
2018-08-04T17:15:05.663Z,2.30
2018-08-04T17:17:07.947Z,2.47
2018-08-04T17:19:10.361Z,2.50
2018-08-04T17:21:12.599Z,2.63
2018-08-04T17:23:14.838Z,2.50
2018-08-04T17:25:17.035Z,2.70
2018-08-04T17:27:19.592Z,2.40
2018-08-04T17:29:22.154Z,2.83
2018-08-04T17:31:24.473Z,2.57
2018-08-04T17:33:27.248Z,3.03
2018-08-04T17:35:29.423Z,2.93
2018-08-04T17:37:35.108Z,2.13
2018-08-04T17:39:37.740Z,2.60
2018-08-04T17:41:40.475Z,2.50
2018-08-04T17:43:43.357Z,2.83
2018-08-04T17:45:46.583Z,2.70
2018-08-04T17:47:49.747Z,2.50
2018-08-04T17:49:52.195Z,2.63
2018-08-04T17:51:54.964Z,2.93
2018-08-04T17:53:57.367Z,2.50
2018-08-04T17:55:59.880Z,3.90
2018-08-04T17:58:02.858Z,2.73
2018-08-04T18:00:06.010Z,2.80
2018-08-04T18:02:09.159Z,2.83
2018-08-04T18:04:12.719Z,3.40
2018-08-04T18:06:15.210Z,3.37
2018-08-04T18:08:17.639Z,2.80
2018-08-04T18:10:21.804Z,3.00
2018-08-04T18:12:24.062Z,2.50
2018-08-04T18:14:27.787Z,3.40
2018-08-04T18:16:30.271Z,2.80
2018-08-04T18:18:33.269Z,3.10
2018-08-04T18:20:35.804Z,3.37
2018-08-04T18:22:40.840Z,2.70
2018-08-04T18:24:43.286Z,2.70
2018-08-04T18:26:46.106Z,2.80
2018-08-04T18:28:48.413Z,3.00
2018-08-04T18:30:51.028Z,3.00
2018-08-04T18:32:53.644Z,3.13
2018-08-04T18:34:56.671Z,3.13
2018-08-04T18:36:59.095Z,3.27
2018-08-04T18:39:02.024Z,3.33
2018-08-04T18:41:04.349Z,3.00
2018-08-04T18:43:06.838Z,3.27
2018-08-04T18:45:15.131Z,2.67
2018-08-04T18:47:18.091Z,3.00
2018-08-04T18:49:20.616Z,2.90
2018-08-04T18:51:23.846Z,3.00
2018-08-04T18:53:25.978Z,2.90
2018-08-04T18:55:28.174Z,3.30
2018-08-04T18:57:30.296Z,3.23
2018-08-04T18:59:32.898Z,2.90
2018-08-04T19:01:35.019Z,4.17
2018-08-04T19:03:37.407Z,3.50
2018-08-04T19:05:39.640Z,3.37
2018-08-04T19:07:41.766Z,4.10
2018-08-04T19:09:43.889Z,3.63
2018-08-04T19:11:46.062Z,3.83
2018-08-04T19:13:48.260Z,3.37
2018-08-04T19:15:50.421Z,3.40
2018-08-04T19:17:52.594Z,3.87
2018-08-04T19:19:54.726Z,4.30
2018-08-04T19:21:56.862Z,6.47
2018-08-04T19:23:59.070Z,5.87
2018-08-04T19:26:01.178Z,5.03
2018-08-04T19:28:03.439Z,4.23
2018-08-04T19:30:06.228Z,4.87
2018-08-04T19:32:08.397Z,4.33
2018-08-04T19:34:10.643Z,4.33
2018-08-04T19:36:12.797Z,4.10
2018-08-04T19:38:14.902Z,4.00
2018-08-04T19:40:17.051Z,4.20
2018-08-04T19:42:19.215Z,4.17
2018-08-04T19:44:21.380Z,3.60
2018-08-04T19:46:24.585Z,3.30
2018-08-04T19:48:26.919Z,3.37
2018-08-04T19:50:29.089Z,4.53
2018-08-04T19:52:31.222Z,4.00
2018-08-04T19:54:33.409Z,3.73
2018-08-04T19:56:35.701Z,3.77
2018-08-04T19:58:37.947Z,4.27
2018-08-04T20:00:40.071Z,3.40
2018-08-04T20:02:42.193Z,3.67
2018-08-04T20:04:44.514Z,3.73
2018-08-04T20:06:47.159Z,3.00
2018-08-04T20:08:49.620Z,3.27
2018-08-04T20:10:51.977Z,3.30
2018-08-04T20:12:54.450Z,3.90
2018-08-04T20:14:56.606Z,2.53
2018-08-04T20:16:59.050Z,2.87
2018-08-04T20:19:01.326Z,3.50
2018-08-04T20:21:03.680Z,3.40
2018-08-04T20:23:05.840Z,3.40
2018-08-04T20:25:08.043Z,2.80
2018-08-04T20:27:10.824Z,2.73
2018-08-04T20:29:13.063Z,3.20
2018-08-04T20:31:15.275Z,2.73
2018-08-04T20:33:17.624Z,3.10
2018-08-04T20:35:19.777Z,3.60
2018-08-04T20:37:21.935Z,2.50
2018-08-04T20:39:24.097Z,3.23
2018-08-04T20:41:26.250Z,2.93
2018-08-04T20:43:28.725Z,2.57
2018-08-04T20:45:31.002Z,3.10
2018-08-04T20:47:33.310Z,3.03
2018-08-04T20:49:35.766Z,2.60
2018-08-04T20:51:38.128Z,2.90
2018-08-04T20:53:41.121Z,2.40
2018-08-04T20:55:43.385Z,2.87
2018-08-04T20:57:46.007Z,2.63
2018-08-04T20:59:48.618Z,2.77
2018-08-04T21:01:59.591Z,2.47
2018-08-04T21:04:02.282Z,2.30
2018-08-04T21:06:05.146Z,2.27
2018-08-04T21:08:08.042Z,2.43
2018-08-04T21:10:13.469Z,2.03
2018-08-04T21:12:16.244Z,2.53
2018-08-04T21:14:24.514Z,2.83
2018-08-04T21:16:26.822Z,2.23
2018-08-04T21:18:29.281Z,2.53
2018-08-04T21:20:31.707Z,2.30
2018-08-04T21:22:34.411Z,2.37
2018-08-04T21:24:37.320Z,2.50
2018-08-04T21:26:39.588Z,2.47
2018-08-04T21:28:42.796Z,2.50
2018-08-04T21:30:48.903Z,2.20
2018-08-04T21:32:53.142Z,2.40
2018-08-04T21:35:01.085Z,2.43
2018-08-04T21:37:13.403Z,2.60
2018-08-04T21:39:23.536Z,2.47
2018-08-04T21:41:28.711Z,2.87
2018-08-04T21:43:31.816Z,2.40
2018-08-04T21:45:34.212Z,2.67
2018-08-04T21:47:39.963Z,2.20
2018-08-04T21:49:43.234Z,2.67
2018-08-04T21:51:47.939Z,2.37
2018-08-04T21:53:50.526Z,2.57
2018-08-04T21:55:53.422Z,2.47
2018-08-04T21:57:56.384Z,2.07
2018-08-04T22:00:02.591Z,2.27
2018-08-04T22:02:06.994Z,1.90
2018-08-04T22:04:09.801Z,2.53
2018-08-04T22:06:13.627Z,2.40
2018-08-04T22:08:27.337Z,1.87
2018-08-04T22:10:29.983Z,2.00
2018-08-04T22:12:32.523Z,2.40
2018-08-04T22:14:35.512Z,2.50
2018-08-04T22:16:39.219Z,2.60
2018-08-04T22:18:43.430Z,2.23
2018-08-04T22:20:45.903Z,2.17
2018-08-04T22:22:49.302Z,2.50
2018-08-04T22:24:51.723Z,2.37
2018-08-04T22:26:55.509Z,2.37
2018-08-04T22:28:58.272Z,2.70
2018-08-04T22:31:00.722Z,2.53
2018-08-04T22:33:03.197Z,2.47
2018-08-04T22:35:06.398Z,2.57
2018-08-04T22:37:08.911Z,2.63
2018-08-04T22:39:11.477Z,2.77
2018-08-04T22:41:14.013Z,2.20
2018-08-04T22:43:16.249Z,2.87
2018-08-04T22:46:21.225Z,2.30
2018-08-04T22:48:23.710Z,2.50
2018-08-04T22:50:26.889Z,2.70
2018-08-04T22:52:29.367Z,2.43
2018-08-04T22:54:32.017Z,2.60
2018-08-04T22:56:34.728Z,2.63
2018-08-04T22:58:38.100Z,2.57
2018-08-04T23:00:42.217Z,2.10
2018-08-04T23:02:44.792Z,2.40
2018-08-04T23:04:47.959Z,2.50
2018-08-04T23:06:50.362Z,2.30
2018-08-04T23:08:53.335Z,2.60
2018-08-04T23:10:55.914Z,2.30
2018-08-04T23:12:58.723Z,4.30
2018-08-04T23:15:03.124Z,2.43
2018-08-04T23:17:05.371Z,2.40
2018-08-04T23:19:10.473Z,2.77
2018-08-04T23:21:13.718Z,2.30
2018-08-04T23:23:16.386Z,2.20
2018-08-04T23:25:19.801Z,2.33
2018-08-04T23:27:25.503Z,2.37
2018-08-04T23:29:29.019Z,2.80
2018-08-04T23:31:32.574Z,2.50
2018-08-04T23:33:35.525Z,2.10
2018-08-04T23:35:38.491Z,2.80
2018-08-04T23:37:41.173Z,2.70
2018-08-04T23:39:43.715Z,3.00
2018-08-04T23:41:47.798Z,2.60
2018-08-04T23:43:51.291Z,2.53
2018-08-04T23:45:53.894Z,2.63
2018-08-04T23:47:57.001Z,2.60
2018-08-04T23:50:00.408Z,2.50
2018-08-04T23:52:03.059Z,2.57
2018-08-04T23:54:06.952Z,2.63
2018-08-04T23:58:25.831Z,2.60
